Saint Petersburg, FL

11:47 PM EST on Januari 21, 2019 (GMT -0500)
Thurgood Marshall Middle School WeatherSTEM | | Change Station

Elev 36 ft 27.75 °N, 82.69 °W | Updated 2 minutes ago

Klart
Klart
52.3 °F
Feels Like 52.3 °F
N
1
Vind Växlande Vind from Ostlig
Gusts 0.0 miles/tim

Idag
High -- | Low -- °F
--% Chance of Precip.
Yesterday
High -- | Low -- °F
Precip. -- tum
Lufttryck 30.37 tum
Sikt 10.0 miles
Molnigt Klart
Daggpunkt 46 °F
Luftfuktighet 78%
Rainfall 0.00 tum
Snow Depth Not available.
7:21 AM 6:02 PM
Fullmåne, 99% visible
METAR KSPG 220353Z AUTO 08019KT 10SM CLR 12/08 A3036 RMK AO2 SLP282 T01220083
Lufttryck 30.37 tum
Sikt 10.0 miles
Molnigt Klart
Daggpunkt 46 °F
Luftfuktighet 78%
Rainfall 0.00 tum
Snow Depth Not available.
7:21 AM 6:02 PM
Fullmåne, 99% visible
METAR KSPG 220353Z AUTO 08019KT 10SM CLR 12/08 A3036 RMK AO2 SLP282 T01220083

Get Severe Weather Alerts

Thanks for signing up!

Be on the lookout for a verification email in your inbox.

You'll start receiving the daily forecast at 6 AM.

×

10-Day Weather Forecast

Almanac

Astronomi

Jan. 21, 2019 Rise Set
Actual Time
Civil Twilight
Nautical Twilight
Astronomical Twilight
Månen
Length Of Visible Light
Dagens längd
Tomorrow will be .
, % of the Moon is Illuminated

Today's Extremes

State Highs State Lows

Community

WunderPhotos

Category 6

Welcome to Category 6. This is the collective home for Weather Underground's featured writeups by Dr. Jeff Masters (right), Bob Henson (left), Chris Burt, and other regular contributors.

Nearby

Air Quality

  Air Quality AQ Index Pollutant
Not available.

Snödjup

Station Depth Elevation

Earthquake Activity

Stad Distance Mag. Time & Date
Minimum magnitude displayed is 2.5.

Coastal Water Temperatures

Plats Temperatur

Stations

Nearby Weather Stations

Station Location Temp Vindavkylning Daggpunkt Luftfuktighet Vind Precip. Elev Uppdaterad Type
                   

Watches & Warnings

There are currently no watches in effect.